AirNav   Air Wisconsin Up To $57,000 Bonus
 
 1096 users online  

MY76 Johnson's Sea Landing Seaplane Base
Tower, Minnesota, USA

GOING TO TOWER?


FAA INFORMATION EFFECTIVE 15 JULY 2021

Location

FAA Identifier: MY76
Lat/Long: 47-51-21.9400N 092-23-30.0300W
47-51.365667N 092-23.500500W
47.8560944,-92.3916750
(estimated)
Elevation: 1300 ft. / 396 m (estimated)
From city: 6 miles SE of TOWER, MN
Time zone: UTC -5 (UTC -6 during Standard Time)
Zip code: 55790

Seaplane Base Operations

Seaplane Base use: Private use. Permission required prior to landing
Activation date: 04/2007
Control tower: no
ARTCC: MINNEAPOLIS CENTER
FSS: PRINCETON FLIGHT SERVICE STATION
Attendance: UNATNDD
Segmented circle: no

Seaplane Base Communications

WX AWOS-3 at CQM (12 nm W): 118.175 (218-666-2539)

Nearby radio navigation aids

VOR radial/distance  VOR name  Freq  Var
HIBr019/35.6HIBBING VOR/DME110.8002E

 
NDB name  Hdg/Dist  Freq  Var  ID
SCOTT173/24.538501WSCG ... -.-. --.

Seaplane Base Services

Airframe service: NONE
Powerplant service: NONE
Bottled oxygen: NONE
Bulk oxygen: NONE

Runway Information

Runway 9W/27W

Dimensions: 9000 x 1000 ft. / 2743 x 305 m
Surface: water
RUNWAY 9W  RUNWAY 27W
Traffic pattern: leftleft

Runway 4W/22W

Dimensions: 5600 x 1000 ft. / 1707 x 305 m
Surface: water
RUNWAY 4W  RUNWAY 22W
Traffic pattern: leftleft

Seaplane Base Ownership and Management from official FAA records

Ownership: Privately-owned
Owner: BRAIN L. JOHNSON
2139 BIRCH POINT RD
TOWER, MN 55790
Phone 218-753-5165
Manager: BRAIN L. JOHNSON
2139 BIRCH POINT RD
TOWER, MN 55790
Phone 218-753-5165

Seaplane Base Operational Statistics

Aircraft based on the field: 1
Single engine airplanes: 1
    

Additional Remarks

OWNER DESIRES ARPT NOT BE CHARTED.
FOR CD CTC MINNEAPOLIS ARTCC AT 651-463-5588.

Instrument Procedures

There are no published instrument procedures at MY76.

Some nearby airports with instrument procedures:

12D - Tower Municipal Airport (5 nm SE)
KCQM - Cook Municipal Airport (12 nm W)
KORB - Orr Regional Airport (21 nm NW)
KELO - Ely Municipal Airport (23 nm E)
KEVM - Eveleth-Virginia Municipal Airport (26 nm S)
 
Loc | Ops | Rwys | IFR | FBO | Links
Com | Nav | Svcs | Stats | Notes
Area around MY76 (Johnson's Sea Landing Seaplane Base)
 
Road maps at: MapQuest Bing Google
 
Aerial photo
No photo
 
Sectional chart

 
Airport distance calculator
Flying to Johnson's Sea Landing Seaplane Base? Find the distance to fly.

From to MY76

Sunrise and sunset
Times for 28-Jul-2021
 Local
(UTC-5)
 Zulu
(UTC)
Morning civil twilight05:0510:05
Sunrise05:4210:42
Sunset20:5001:50
Evening civil twilight21:2702:27

Current date and time
Zulu (UTC)  29-Jul-2021 00:27:15
Local (UTC-5)  28-Jul-2021 19:27:15
 
METAR
KCQM 
12nm W 
290017Z AUTO 17003KT 10SM SCT070 24/19 A2984 RMK AO2
KORB 
21nm NW 
290013Z AUTO 00000KT 10SM CLR 25/19 A2982 RMK AO2
KELO 
23nm E 
290015Z AUTO 20004KT 10SM OVC046 22/18 A2985 RMK AO2
TAF
KHIB 
34nm SW 
281739Z 2818/2918 21008KT P6SM VCTS SCT060CB BKN080 TEMPO 2818/2819 1SM TSRA BKN015CB OVC050 FM282000 10010KT P6SM VCTS SCT035CB BKN080 TEMPO 2820/2824 32015G30KT 1SM TSRA BR BKN025CB OVC080 FM290200 36005KT P6SM SCT035 SCT100
NOTAMs
Click for the latest NOTAMs
NOTAMs are issued by the DoD/FAA and will open in a separate window not controlled by AirNav.

 

 
 

Would you like to see your business listed on this page?

 If your business provides an interesting product or service to pilots, flight crews, aircraft, or users of the Johnson's Sea Landing Seaplane Base, you should consider listing it here.  To start the listing process, click on the button below
 
Add a business
 

Other Pages about Johnson's Sea Landing Seaplane Base

Update a link
 
Copyright © AirNav, LLC. All rights reserved. Privacy Policy  Contact